sensor_id;sensor_type;location;lat;lon;timestamp;temperature;humidity
23323;DHT22;11833;52.554;13.554;2023-06-14T00:00:45;16.90;74.40
23323;DHT22;11833;52.554;13.554;2023-06-14T00:03:11;16.90;74.40
23323;DHT22;11833;52.554;13.554;2023-06-14T00:05:40;16.80;75.10
23323;DHT22;11833;52.554;13.554;2023-06-14T00:08:09;16.90;75.10
23323;DHT22;11833;52.554;13.554;2023-06-14T00:10:36;16.90;75.00
23323;DHT22;11833;52.554;13.554;2023-06-14T00:13:05;17.00;75.00
23323;DHT22;11833;52.554;13.554;2023-06-14T00:15:33;16.90;75.20
23323;DHT22;11833;52.554;13.554;2023-06-14T00:17:59;16.80;76.20
23323;DHT22;11833;52.554;13.554;2023-06-14T00:20:26;16.80;77.00
23323;DHT22;11833;52.554;13.554;2023-06-14T00:22:53;16.70;76.70
23323;DHT22;11833;52.554;13.554;2023-06-14T00:25:23;16.60;77.40
23323;DHT22;11833;52.554;13.554;2023-06-14T00:27:51;16.70;77.40
23323;DHT22;11833;52.554;13.554;2023-06-14T00:30:17;16.70;77.60
23323;DHT22;11833;52.554;13.554;2023-06-14T00:32:44;16.80;77.30
23323;DHT22;11833;52.554;13.554;2023-06-14T00:35:10;16.80;77.40
23323;DHT22;11833;52.554;13.554;2023-06-14T00:37:36;16.70;78.00
23323;DHT22;11833;52.554;13.554;2023-06-14T00:40:03;16.50;78.80
23323;DHT22;11833;52.554;13.554;2023-06-14T00:42:32;16.50;79.40
23323;DHT22;11833;52.554;13.554;2023-06-14T00:45:00;16.60;79.40
23323;DHT22;11833;52.554;13.554;2023-06-14T00:47:26;16.70;79.50
23323;DHT22;11833;52.554;13.554;2023-06-14T00:49:53;16.70;79.50
23323;DHT22;11833;52.554;13.554;2023-06-14T00:52:20;16.60;80.00
23323;DHT22;11833;52.554;13.554;2023-06-14T00:54:46;16.60;80.30
23323;DHT22;11833;52.554;13.554;2023-06-14T00:57:13;16.50;80.70
23323;DHT22;11833;52.554;13.554;2023-06-14T00:59:46;16.40;81.90
23323;DHT22;11833;52.554;13.554;2023-06-14T01:02:13;16.40;82.50
23323;DHT22;11833;52.554;13.554;2023-06-14T01:04:41;16.50;82.40
23323;DHT22;11833;52.554;13.554;2023-06-14T01:07:40;16.40;83.30
23323;DHT22;11833;52.554;13.554;2023-06-14T01:10:30;16.30;84.00
23323;DHT22;11833;52.554;13.554;2023-06-14T01:13:35;16.30;84.40
23323;DHT22;11833;52.554;13.554;2023-06-14T01:16:03;16.30;84.60
23323;DHT22;11833;52.554;13.554;2023-06-14T01:18:30;16.40;84.50
23323;DHT22;11833;52.554;13.554;2023-06-14T01:20:57;16.30;84.70
23323;DHT22;11833;52.554;13.554;2023-06-14T01:23:23;16.30;84.80
23323;DHT22;11833;52.554;13.554;2023-06-14T01:25:50;16.30;85.30
23323;DHT22;11833;52.554;13.554;2023-06-14T01:28:21;16.30;85.50
23323;DHT22;11833;52.554;13.554;2023-06-14T01:30:52;16.30;85.90
23323;DHT22;11833;52.554;13.554;2023-06-14T01:33:22;16.30;85.80
23323;DHT22;11833;52.554;13.554;2023-06-14T01:35:53;16.30;86.30
23323;DHT22;11833;52.554;13.554;2023-06-14T01:38:23;16.20;87.10
23323;DHT22;11833;52.554;13.554;2023-06-14T01:40:52;16.20;87.50
23323;DHT22;11833;52.554;13.554;2023-06-14T01:43:20;16.20;87.60
23323;DHT22;11833;52.554;13.554;2023-06-14T01:45:47;16.20;87.80
23323;DHT22;11833;52.554;13.554;2023-06-14T01:48:14;16.20;88.30
23323;DHT22;11833;52.554;13.554;2023-06-14T01:50:41;16.00;89.20
23323;DHT22;11833;52.554;13.554;2023-06-14T01:53:08;15.80;90.30
23323;DHT22;11833;52.554;13.554;2023-06-14T01:55:34;15.90;90.40
23323;DHT22;11833;52.554;13.554;2023-06-14T01:58:03;15.90;90.40
23323;DHT22;11833;52.554;13.554;2023-06-14T02:00:30;16.00;90.60
23323;DHT22;11833;52.554;13.554;2023-06-14T02:02:55;15.80;91.10
23323;DHT22;11833;52.554;13.554;2023-06-14T02:05:22;15.70;91.60
23323;DHT22;11833;52.554;13.554;2023-06-14T02:07:48;15.70;91.70
23323;DHT22;11833;52.554;13.554;2023-06-14T02:10:14;15.80;91.60
23323;DHT22;11833;52.554;13.554;2023-06-14T02:12:40;15.90;91.60
23323;DHT22;11833;52.554;13.554;2023-06-14T02:15:07;15.90;91.70
23323;DHT22;11833;52.554;13.554;2023-06-14T02:17:33;15.90;91.70
23323;DHT22;11833;52.554;13.554;2023-06-14T02:19:59;15.90;91.70
23323;DHT22;11833;52.554;13.554;2023-06-14T02:22:26;15.80;92.00
23323;DHT22;11833;52.554;13.554;2023-06-14T02:24:51;15.70;92.40
23323;DHT22;11833;52.554;13.554;2023-06-14T02:27:18;15.70;92.60
23323;DHT22;11833;52.554;13.554;2023-06-14T02:29:43;15.60;92.90
23323;DHT22;11833;52.554;13.554;2023-06-14T02:32:10;15.60;93.10
23323;DHT22;11833;52.554;13.554;2023-06-14T02:34:36;15.50;93.10
23323;DHT22;11833;52.554;13.554;2023-06-14T02:37:02;15.50;93.30
23323;DHT22;11833;52.554;13.554;2023-06-14T02:39:29;15.60;93.20
23323;DHT22;11833;52.554;13.554;2023-06-14T02:41:54;15.50;93.40
23323;DHT22;11833;52.554;13.554;2023-06-14T02:44:24;15.60;93.60
23323;DHT22;11833;52.554;13.554;2023-06-14T02:46:54;15.50;93.60
23323;DHT22;11833;52.554;13.554;2023-06-14T02:49:21;15.50;94.00
23323;DHT22;11833;52.554;13.554;2023-06-14T02:51:48;15.50;94.20
23323;DHT22;11833;52.554;13.554;2023-06-14T02:54:13;15.40;94.60
23323;DHT22;11833;52.554;13.554;2023-06-14T02:56:39;15.40;94.40
23323;DHT22;11833;52.554;13.554;2023-06-14T02:59:06;15.50;94.50
23323;DHT22;11833;52.554;13.554;2023-06-14T03:01:33;15.40;94.60
23323;DHT22;11833;52.554;13.554;2023-06-14T03:04:09;15.50;94.40
23323;DHT22;11833;52.554;13.554;2023-06-14T03:06:35;15.50;94.50
23323;DHT22;11833;52.554;13.554;2023-06-14T03:09:02;15.50;94.50
23323;DHT22;11833;52.554;13.554;2023-06-14T03:11:31;15.40;94.90
23323;DHT22;11833;52.554;13.554;2023-06-14T03:13:57;15.40;95.10
23323;DHT22;11833;52.554;13.554;2023-06-14T03:16:23;15.40;95.40
23323;DHT22;11833;52.554;13.554;2023-06-14T03:18:52;15.40;95.60
23323;DHT22;11833;52.554;13.554;2023-06-14T03:21:21;15.30;95.80
23323;DHT22;11833;52.554;13.554;2023-06-14T03:23:47;15.20;96.30
23323;DHT22;11833;52.554;13.554;2023-06-14T03:26:14;15.30;96.30
23323;DHT22;11833;52.554;13.554;2023-06-14T03:28:46;15.30;96.40
23323;DHT22;11833;52.554;13.554;2023-06-14T03:31:15;15.30;96.70
23323;DHT22;11833;52.554;13.554;2023-06-14T03:33:41;15.20;96.70
23323;DHT22;11833;52.554;13.554;2023-06-14T03:36:07;15.20;96.90
23323;DHT22;11833;52.554;13.554;2023-06-14T03:38:33;15.20;97.20
23323;DHT22;11833;52.554;13.554;2023-06-14T03:41:00;15.10;97.50
23323;DHT22;11833;52.554;13.554;2023-06-14T03:43:26;15.10;97.60
23323;DHT22;11833;52.554;13.554;2023-06-14T03:45:52;15.10;97.70
23323;DHT22;11833;52.554;13.554;2023-06-14T03:48:18;15.10;97.80
23323;DHT22;11833;52.554;13.554;2023-06-14T03:50:44;15.30;97.50
23323;DHT22;11833;52.554;13.554;2023-06-14T03:53:10;15.20;97.90
23323;DHT22;11833;52.554;13.554;2023-06-14T03:55:36;15.30;97.50
23323;DHT22;11833;52.554;13.554;2023-06-14T03:58:03;15.30;97.70
23323;DHT22;11833;52.554;13.554;2023-06-14T04:00:29;15.30;97.90
23323;DHT22;11833;52.554;13.554;2023-06-14T04:02:55;15.40;97.90
23323;DHT22;11833;52.554;13.554;2023-06-14T04:05:21;15.50;97.70
23323;DHT22;11833;52.554;13.554;2023-06-14T04:07:47;15.50;97.60
23323;DHT22;11833;52.554;13.554;2023-06-14T04:10:14;15.50;97.60
23323;DHT22;11833;52.554;13.554;2023-06-14T04:12:41;15.70;97.20
23323;DHT22;11833;52.554;13.554;2023-06-14T04:15:08;15.70;96.90
23323;DHT22;11833;52.554;13.554;2023-06-14T04:17:35;15.70;97.20
23323;DHT22;11833;52.554;13.554;2023-06-14T04:20:02;15.70;97.30
23323;DHT22;11833;52.554;13.554;2023-06-14T04:22:30;15.70;97.10
23323;DHT22;11833;52.554;13.554;2023-06-14T04:24:57;15.80;96.90
23323;DHT22;11833;52.554;13.554;2023-06-14T04:27:23;15.70;97.30
23323;DHT22;11833;52.554;13.554;2023-06-14T04:29:52;15.70;97.30
23323;DHT22;11833;52.554;13.554;2023-06-14T04:32:28;15.70;97.40
23323;DHT22;11833;52.554;13.554;2023-06-14T04:35:06;15.80;97.10
23323;DHT22;11833;52.554;13.554;2023-06-14T04:37:32;15.80;97.10
23323;DHT22;11833;52.554;13.554;2023-06-14T04:39:58;15.80;97.20
23323;DHT22;11833;52.554;13.554;2023-06-14T04:42:24;15.80;97.40
23323;DHT22;11833;52.554;13.554;2023-06-14T04:44:55;15.80;97.70
23323;DHT22;11833;52.554;13.554;2023-06-14T04:47:21;15.80;97.70
23323;DHT22;11833;52.554;13.554;2023-06-14T04:49:47;15.90;97.50
23323;DHT22;11833;52.554;13.554;2023-06-14T04:52:13;16.00;97.70
23323;DHT22;11833;52.554;13.554;2023-06-14T04:54:39;16.10;97.10
23323;DHT22;11833;52.554;13.554;2023-06-14T04:57:09;16.00;97.40
23323;DHT22;11833;52.554;13.554;2023-06-14T04:59:39;16.10;96.90
23323;DHT22;11833;52.554;13.554;2023-06-14T05:02:05;16.10;97.10
23323;DHT22;11833;52.554;13.554;2023-06-14T05:04:32;16.10;96.90
23323;DHT22;11833;52.554;13.554;2023-06-14T05:06:58;16.20;96.80
23323;DHT22;11833;52.554;13.554;2023-06-14T05:09:24;16.20;97.00
23323;DHT22;11833;52.554;13.554;2023-06-14T05:11:49;16.20;97.20
23323;DHT22;11833;52.554;13.554;2023-06-14T05:14:16;16.30;96.50
23323;DHT22;11833;52.554;13.554;2023-06-14T05:16:43;16.40;96.40
23323;DHT22;11833;52.554;13.554;2023-06-14T05:19:09;16.50;96.60
23323;DHT22;11833;52.554;13.554;2023-06-14T05:21:36;16.60;95.80
23323;DHT22;11833;52.554;13.554;2023-06-14T05:24:02;16.70;95.40
23323;DHT22;11833;52.554;13.554;2023-06-14T05:26:28;16.90;94.70
23323;DHT22;11833;52.554;13.554;2023-06-14T05:28:56;16.90;94.80
23323;DHT22;11833;52.554;13.554;2023-06-14T05:31:23;17.00;94.70
23323;DHT22;11833;52.554;13.554;2023-06-14T05:33:50;17.00;94.60
23323;DHT22;11833;52.554;13.554;2023-06-14T05:36:16;17.00;94.60
23323;DHT22;11833;52.554;13.554;2023-06-14T05:38:41;17.10;94.40
23323;DHT22;11833;52.554;13.554;2023-06-14T05:41:07;17.10;94.50
23323;DHT22;11833;52.554;13.554;2023-06-14T05:43:33;17.10;94.50
23323;DHT22;11833;52.554;13.554;2023-06-14T05:45:59;17.10;94.10
23323;DHT22;11833;52.554;13.554;2023-06-14T05:48:24;17.30;93.80
23323;DHT22;11833;52.554;13.554;2023-06-14T05:50:50;17.30;93.90
23323;DHT22;11833;52.554;13.554;2023-06-14T05:53:16;17.30;93.70
23323;DHT22;11833;52.554;13.554;2023-06-14T05:55:41;17.30;93.60
23323;DHT22;11833;52.554;13.554;2023-06-14T05:58:07;17.20;93.90
23323;DHT22;11833;52.554;13.554;2023-06-14T06:00:33;17.20;93.80
23323;DHT22;11833;52.554;13.554;2023-06-14T06:02:59;17.20;93.80
23323;DHT22;11833;52.554;13.554;2023-06-14T06:05:24;17.20;93.60
23323;DHT22;11833;52.554;13.554;2023-06-14T06:07:50;17.30;93.60
23323;DHT22;11833;52.554;13.554;2023-06-14T06:10:16;17.30;93.50
23323;DHT22;11833;52.554;13.554;2023-06-14T06:12:42;17.30;93.60
23323;DHT22;11833;52.554;13.554;2023-06-14T06:15:08;17.30;93.60
23323;DHT22;11833;52.554;13.554;2023-06-14T06:17:38;17.30;93.80
23323;DHT22;11833;52.554;13.554;2023-06-14T06:20:05;17.30;94.00
23323;DHT22;11833;52.554;13.554;2023-06-14T06:22:33;17.30;94.40
23323;DHT22;11833;52.554;13.554;2023-06-14T06:25:00;17.30;94.20
23323;DHT22;11833;52.554;13.554;2023-06-14T06:27:25;17.40;94.40
23323;DHT22;11833;52.554;13.554;2023-06-14T06:29:51;17.40;94.40
23323;DHT22;11833;52.554;13.554;2023-06-14T06:32:17;17.50;94.10
23323;DHT22;11833;52.554;13.554;2023-06-14T06:34:43;17.50;94.00
23323;DHT22;11833;52.554;13.554;2023-06-14T06:37:09;17.50;93.90
23323;DHT22;11833;52.554;13.554;2023-06-14T06:39:35;17.50;94.00
23323;DHT22;11833;52.554;13.554;2023-06-14T06:42:00;17.60;93.70
23323;DHT22;11833;52.554;13.554;2023-06-14T06:44:26;17.70;93.80
23323;DHT22;11833;52.554;13.554;2023-06-14T06:46:52;17.70;93.40
23323;DHT22;11833;52.554;13.554;2023-06-14T06:49:18;17.80;93.30
23323;DHT22;11833;52.554;13.554;2023-06-14T06:51:52;17.80;93.30
23323;DHT22;11833;52.554;13.554;2023-06-14T06:54:24;18.00;92.80
23323;DHT22;11833;52.554;13.554;2023-06-14T06:56:50;18.10;92.80
23323;DHT22;11833;52.554;13.554;2023-06-14T06:59:16;18.20;92.30
23323;DHT22;11833;52.554;13.554;2023-06-14T07:01:42;18.30;92.10
23323;DHT22;11833;52.554;13.554;2023-06-14T07:04:08;18.30;91.60
23323;DHT22;11833;52.554;13.554;2023-06-14T07:06:33;18.40;91.00
23323;DHT22;11833;52.554;13.554;2023-06-14T07:08:59;18.40;90.80
23323;DHT22;11833;52.554;13.554;2023-06-14T07:11:27;18.40;90.70
23323;DHT22;11833;52.554;13.554;2023-06-14T07:13:53;18.40;91.10
23323;DHT22;11833;52.554;13.554;2023-06-14T07:16:18;18.40;90.90
23323;DHT22;11833;52.554;13.554;2023-06-14T07:18:44;18.40;90.60
23323;DHT22;11833;52.554;13.554;2023-06-14T07:21:10;18.50;90.70
23323;DHT22;11833;52.554;13.554;2023-06-14T07:23:36;18.60;90.70
23323;DHT22;11833;52.554;13.554;2023-06-14T07:26:01;18.70;90.30
23323;DHT22;11833;52.554;13.554;2023-06-14T07:28:27;18.80;90.20
23323;DHT22;11833;52.554;13.554;2023-06-14T07:30:53;18.90;90.00
23323;DHT22;11833;52.554;13.554;2023-06-14T07:33:20;19.00;89.00
23323;DHT22;11833;52.554;13.554;2023-06-14T07:35:45;19.20;88.60
23323;DHT22;11833;52.554;13.554;2023-06-14T07:38:13;19.30;87.90
23323;DHT22;11833;52.554;13.554;2023-06-14T07:40:38;19.40;86.80
23323;DHT22;11833;52.554;13.554;2023-06-14T07:43:04;19.50;86.00
23323;DHT22;11833;52.554;13.554;2023-06-14T07:45:30;19.60;85.50
23323;DHT22;11833;52.554;13.554;2023-06-14T07:47:56;19.70;84.90
23323;DHT22;11833;52.554;13.554;2023-06-14T07:50:22;19.80;84.80
23323;DHT22;11833;52.554;13.554;2023-06-14T07:52:48;19.80;84.00
23323;DHT22;11833;52.554;13.554;2023-06-14T07:55:14;19.90;84.80
23323;DHT22;11833;52.554;13.554;2023-06-14T07:57:40;20.00;84.10
23323;DHT22;11833;52.554;13.554;2023-06-14T08:00:06;20.10;83.10
23323;DHT22;11833;52.554;13.554;2023-06-14T08:02:33;20.10;81.90
23323;DHT22;11833;52.554;13.554;2023-06-14T08:04:59;20.20;81.10
23323;DHT22;11833;52.554;13.554;2023-06-14T08:07:25;20.20;81.10
23323;DHT22;11833;52.554;13.554;2023-06-14T08:09:50;20.20;80.50
23323;DHT22;11833;52.554;13.554;2023-06-14T08:12:16;20.20;80.50
23323;DHT22;11833;52.554;13.554;2023-06-14T08:14:42;20.30;80.30
23323;DHT22;11833;52.554;13.554;2023-06-14T08:17:08;20.40;79.60
23323;DHT22;11833;52.554;13.554;2023-06-14T08:19:34;20.50;78.80
23323;DHT22;11833;52.554;13.554;2023-06-14T08:22:00;20.50;78.80
23323;DHT22;11833;52.554;13.554;2023-06-14T08:24:26;20.60;78.10
23323;DHT22;11833;52.554;13.554;2023-06-14T08:26:54;20.90;77.60
23323;DHT22;11833;52.554;13.554;2023-06-14T08:29:21;21.00;76.10
23323;DHT22;11833;52.554;13.554;2023-06-14T08:31:48;20.90;75.70
23323;DHT22;11833;52.554;13.554;2023-06-14T08:34:14;20.90;75.20
23323;DHT22;11833;52.554;13.554;2023-06-14T08:36:39;20.90;75.20
23323;DHT22;11833;52.554;13.554;2023-06-14T08:39:06;20.80;75.40
23323;DHT22;11833;52.554;13.554;2023-06-14T08:41:34;20.80;75.20
23323;DHT22;11833;52.554;13.554;2023-06-14T08:44:01;20.80;75.10
23323;DHT22;11833;52.554;13.554;2023-06-14T08:46:26;20.90;74.90
23323;DHT22;11833;52.554;13.554;2023-06-14T08:48:55;20.90;74.60
23323;DHT22;11833;52.554;13.554;2023-06-14T08:51:22;20.90;74.60
23323;DHT22;11833;52.554;13.554;2023-06-14T08:53:55;21.00;73.50
23323;DHT22;11833;52.554;13.554;2023-06-14T08:56:27;21.10;73.60
23323;DHT22;11833;52.554;13.554;2023-06-14T08:58:55;21.20;72.80
23323;DHT22;11833;52.554;13.554;2023-06-14T09:01:23;21.40;72.10
23323;DHT22;11833;52.554;13.554;2023-06-14T09:03:50;21.50;71.40
23323;DHT22;11833;52.554;13.554;2023-06-14T09:06:16;21.60;70.60
23323;DHT22;11833;52.554;13.554;2023-06-14T09:08:46;21.70;69.80
23323;DHT22;11833;52.554;13.554;2023-06-14T09:11:15;21.80;69.60
23323;DHT22;11833;52.554;13.554;2023-06-14T09:13:44;21.90;68.50
23323;DHT22;11833;52.554;13.554;2023-06-14T09:16:11;21.90;68.20
23323;DHT22;11833;52.554;13.554;2023-06-14T09:18:41;21.90;67.80
23323;DHT22;11833;52.554;13.554;2023-06-14T09:21:11;21.80;67.60
23323;DHT22;11833;52.554;13.554;2023-06-14T09:23:41;21.90;67.60
23323;DHT22;11833;52.554;13.554;2023-06-14T09:26:13;21.90;67.40
23323;DHT22;11833;52.554;13.554;2023-06-14T09:28:44;22.00;68.00
23323;DHT22;11833;52.554;13.554;2023-06-14T09:31:15;22.00;67.30
23323;DHT22;11833;52.554;13.554;2023-06-14T09:33:43;22.10;67.60
23323;DHT22;11833;52.554;13.554;2023-06-14T09:36:16;22.20;67.10
23323;DHT22;11833;52.554;13.554;2023-06-14T09:38:52;22.20;67.10
23323;DHT22;11833;52.554;13.554;2023-06-14T09:41:18;22.40;66.50
23323;DHT22;11833;52.554;13.554;2023-06-14T09:43:46;22.50;66.20
23323;DHT22;11833;52.554;13.554;2023-06-14T09:46:13;22.50;64.80
23323;DHT22;11833;52.554;13.554;2023-06-14T09:48:39;22.50;65.30
23323;DHT22;11833;52.554;13.554;2023-06-14T09:51:10;22.50;64.90
23323;DHT22;11833;52.554;13.554;2023-06-14T09:53:41;22.50;64.80
23323;DHT22;11833;52.554;13.554;2023-06-14T09:56:09;22.60;63.80
23323;DHT22;11833;52.554;13.554;2023-06-14T09:58:37;22.60;64.00
23323;DHT22;11833;52.554;13.554;2023-06-14T10:01:06;22.50;64.00
23323;DHT22;11833;52.554;13.554;2023-06-14T10:03:34;22.40;64.70
23323;DHT22;11833;52.554;13.554;2023-06-14T10:06:03;22.30;65.10
23323;DHT22;11833;52.554;13.554;2023-06-14T10:08:36;22.40;65.30
23323;DHT22;11833;52.554;13.554;2023-06-14T10:11:02;22.30;65.10
23323;DHT22;11833;52.554;13.554;2023-06-14T10:13:31;22.40;65.10
23323;DHT22;11833;52.554;13.554;2023-06-14T10:16:12;22.30;65.00
23323;DHT22;11833;52.554;13.554;2023-06-14T10:19:18;22.40;65.30
23323;DHT22;11833;52.554;13.554;2023-06-14T10:24:33;22.40;64.60
23323;DHT22;11833;52.554;13.554;2023-06-14T10:27:06;22.20;64.70
23323;DHT22;11833;52.554;13.554;2023-06-14T10:32:21;22.20;64.80
23323;DHT22;11833;52.554;13.554;2023-06-14T10:37:29;22.40;64.40
23323;DHT22;11833;52.554;13.554;2023-06-14T10:39:55;22.40;63.20
23323;DHT22;11833;52.554;13.554;2023-06-14T10:42:21;22.40;62.70
23323;DHT22;11833;52.554;13.554;2023-06-14T10:44:58;22.40;62.90
23323;DHT22;11833;52.554;13.554;2023-06-14T10:47:31;22.50;62.50
23323;DHT22;11833;52.554;13.554;2023-06-14T10:50:04;22.70;62.20
23323;DHT22;11833;52.554;13.554;2023-06-14T10:52:34;22.80;61.60
23323;DHT22;11833;52.554;13.554;2023-06-14T10:57:47;23.10;60.70
23323;DHT22;11833;52.554;13.554;2023-06-14T11:00:20;23.30;59.50
23323;DHT22;11833;52.554;13.554;2023-06-14T11:06:14;23.40;57.80
23323;DHT22;11833;52.554;13.554;2023-06-14T11:12:10;23.60;57.60
23323;DHT22;11833;52.554;13.554;2023-06-14T11:14:38;23.70;57.40
23323;DHT22;11833;52.554;13.554;2023-06-14T11:17:05;23.80;57.70
23323;DHT22;11833;52.554;13.554;2023-06-14T11:19:30;23.90;56.90
23323;DHT22;11833;52.554;13.554;2023-06-14T11:21:57;23.90;56.20
23323;DHT22;11833;52.554;13.554;2023-06-14T11:24:23;24.00;56.80
23323;DHT22;11833;52.554;13.554;2023-06-14T11:26:48;24.10;56.70
23323;DHT22;11833;52.554;13.554;2023-06-14T11:29:15;24.20;56.20
23323;DHT22;11833;52.554;13.554;2023-06-14T11:31:45;24.40;55.50
23323;DHT22;11833;52.554;13.554;2023-06-14T11:34:12;24.40;55.30
23323;DHT22;11833;52.554;13.554;2023-06-14T11:36:38;24.50;54.80
23323;DHT22;11833;52.554;13.554;2023-06-14T11:39:06;24.60;54.60
23323;DHT22;11833;52.554;13.554;2023-06-14T11:41:43;24.70;54.80
23323;DHT22;11833;52.554;13.554;2023-06-14T11:44:10;24.90;53.90
23323;DHT22;11833;52.554;13.554;2023-06-14T11:46:37;25.10;53.00
23323;DHT22;11833;52.554;13.554;2023-06-14T11:49:03;25.20;53.00
23323;DHT22;11833;52.554;13.554;2023-06-14T11:51:31;25.50;52.50
23323;DHT22;11833;52.554;13.554;2023-06-14T11:53:58;25.60;51.60
23323;DHT22;11833;52.554;13.554;2023-06-14T11:56:24;25.80;51.40
23323;DHT22;11833;52.554;13.554;2023-06-14T11:58:51;25.80;50.90
23323;DHT22;11833;52.554;13.554;2023-06-14T12:01:18;25.80;51.20
23323;DHT22;11833;52.554;13.554;2023-06-14T12:03:48;26.10;51.00
23323;DHT22;11833;52.554;13.554;2023-06-14T12:06:26;26.30;50.40
23323;DHT22;11833;52.554;13.554;2023-06-14T12:08:58;26.60;50.10
23323;DHT22;11833;52.554;13.554;2023-06-14T12:11:24;26.90;49.50
23323;DHT22;11833;52.554;13.554;2023-06-14T12:13:58;27.10;48.20
23323;DHT22;11833;52.554;13.554;2023-06-14T12:16:35;27.30;47.50
23323;DHT22;11833;52.554;13.554;2023-06-14T12:19:16;27.60;47.90
23323;DHT22;11833;52.554;13.554;2023-06-14T12:21:45;28.10;46.80
23323;DHT22;11833;52.554;13.554;2023-06-14T12:24:13;28.30;45.80
23323;DHT22;11833;52.554;13.554;2023-06-14T12:26:40;28.70;44.30
23323;DHT22;11833;52.554;13.554;2023-06-14T12:29:07;29.00;43.30
23323;DHT22;11833;52.554;13.554;2023-06-14T12:31:33;29.20;42.90
23323;DHT22;11833;52.554;13.554;2023-06-14T12:33:59;29.50;41.10
23323;DHT22;11833;52.554;13.554;2023-06-14T12:36:26;29.50;41.60
23323;DHT22;11833;52.554;13.554;2023-06-14T12:38:52;29.80;39.30
23323;DHT22;11833;52.554;13.554;2023-06-14T12:41:22;29.70;40.20
23323;DHT22;11833;52.554;13.554;2023-06-14T12:43:48;29.90;40.30
23323;DHT22;11833;52.554;13.554;2023-06-14T12:46:14;29.90;39.30
23323;DHT22;11833;52.554;13.554;2023-06-14T12:48:40;30.00;39.40
23323;DHT22;11833;52.554;13.554;2023-06-14T12:51:05;30.10;39.80
23323;DHT22;11833;52.554;13.554;2023-06-14T12:53:31;30.50;38.40
23323;DHT22;11833;52.554;13.554;2023-06-14T12:55:57;30.50;37.80
23323;DHT22;11833;52.554;13.554;2023-06-14T12:58:23;30.30;38.00
23323;DHT22;11833;52.554;13.554;2023-06-14T13:00:49;30.20;38.20
23323;DHT22;11833;52.554;13.554;2023-06-14T13:03:15;30.10;38.90
23323;DHT22;11833;52.554;13.554;2023-06-14T13:05:41;30.20;38.50
23323;DHT22;11833;52.554;13.554;2023-06-14T13:08:08;30.40;37.90
23323;DHT22;11833;52.554;13.554;2023-06-14T13:10:34;30.60;37.50
23323;DHT22;11833;52.554;13.554;2023-06-14T13:13:00;30.70;37.10
23323;DHT22;11833;52.554;13.554;2023-06-14T13:15:26;30.80;36.60
23323;DHT22;11833;52.554;13.554;2023-06-14T13:17:52;30.80;37.20
23323;DHT22;11833;52.554;13.554;2023-06-14T13:20:18;31.20;36.10
23323;DHT22;11833;52.554;13.554;2023-06-14T13:22:44;31.60;35.00
23323;DHT22;11833;52.554;13.554;2023-06-14T13:25:10;31.80;33.70
23323;DHT22;11833;52.554;13.554;2023-06-14T13:27:36;31.90;33.70
23323;DHT22;11833;52.554;13.554;2023-06-14T13:30:03;32.10;34.30
23323;DHT22;11833;52.554;13.554;2023-06-14T13:32:30;32.20;33.80
23323;DHT22;11833;52.554;13.554;2023-06-14T13:34:56;32.10;33.70
23323;DHT22;11833;52.554;13.554;2023-06-14T13:37:23;31.80;33.50
23323;DHT22;11833;52.554;13.554;2023-06-14T13:39:48;31.60;33.50
23323;DHT22;11833;52.554;13.554;2023-06-14T13:42:14;31.90;33.70
23323;DHT22;11833;52.554;13.554;2023-06-14T13:44:40;32.20;33.90
23323;DHT22;11833;52.554;13.554;2023-06-14T13:47:06;32.60;33.30
23323;DHT22;11833;52.554;13.554;2023-06-14T13:49:32;32.50;32.20
23323;DHT22;11833;52.554;13.554;2023-06-14T13:52:00;32.10;31.60
23323;DHT22;11833;52.554;13.554;2023-06-14T13:54:26;31.70;33.50
23323;DHT22;11833;52.554;13.554;2023-06-14T13:56:53;31.30;33.00
23323;DHT22;11833;52.554;13.554;2023-06-14T13:59:19;30.70;33.90
23323;DHT22;11833;52.554;13.554;2023-06-14T14:01:44;30.20;34.60
23323;DHT22;11833;52.554;13.554;2023-06-14T14:04:10;29.90;35.10
23323;DHT22;11833;52.554;13.554;2023-06-14T14:06:36;29.60;36.00
23323;DHT22;11833;52.554;13.554;2023-06-14T14:09:02;29.20;36.50
23323;DHT22;11833;52.554;13.554;2023-06-14T14:11:28;28.90;36.00
23323;DHT22;11833;52.554;13.554;2023-06-14T14:13:58;28.70;36.40
23323;DHT22;11833;52.554;13.554;2023-06-14T14:16:24;28.40;36.40
23323;DHT22;11833;52.554;13.554;2023-06-14T14:18:50;28.30;36.40
23323;DHT22;11833;52.554;13.554;2023-06-14T14:21:16;28.30;36.70
23323;DHT22;11833;52.554;13.554;2023-06-14T14:23:41;28.30;36.90
23323;DHT22;11833;52.554;13.554;2023-06-14T14:26:07;28.30;37.20
23323;DHT22;11833;52.554;13.554;2023-06-14T14:28:33;28.50;37.20
23323;DHT22;11833;52.554;13.554;2023-06-14T14:30:59;29.00;36.20
23323;DHT22;11833;52.554;13.554;2023-06-14T14:33:25;29.20;36.40
23323;DHT22;11833;52.554;13.554;2023-06-14T14:35:50;29.30;35.30
23323;DHT22;11833;52.554;13.554;2023-06-14T14:38:16;29.40;35.70
23323;DHT22;11833;52.554;13.554;2023-06-14T14:40:43;29.70;36.30
23323;DHT22;11833;52.554;13.554;2023-06-14T14:43:09;29.80;34.90
23323;DHT22;11833;52.554;13.554;2023-06-14T14:45:36;29.70;34.80
23323;DHT22;11833;52.554;13.554;2023-06-14T14:48:02;29.30;35.80
23323;DHT22;11833;52.554;13.554;2023-06-14T14:50:28;29.00;35.40
23323;DHT22;11833;52.554;13.554;2023-06-14T14:52:54;28.60;36.40
23323;DHT22;11833;52.554;13.554;2023-06-14T14:55:20;28.20;37.50
23323;DHT22;11833;52.554;13.554;2023-06-14T14:57:46;27.70;38.70
23323;DHT22;11833;52.554;13.554;2023-06-14T15:00:13;27.30;39.20
23323;DHT22;11833;52.554;13.554;2023-06-14T15:02:39;27.10;39.80
23323;DHT22;11833;52.554;13.554;2023-06-14T15:05:05;27.00;39.90
23323;DHT22;11833;52.554;13.554;2023-06-14T15:07:31;26.70;40.40
23323;DHT22;11833;52.554;13.554;2023-06-14T15:09:59;26.60;40.50
23323;DHT22;11833;52.554;13.554;2023-06-14T15:12:25;26.50;40.70
23323;DHT22;11833;52.554;13.554;2023-06-14T15:14:51;26.50;40.80
23323;DHT22;11833;52.554;13.554;2023-06-14T15:17:18;26.40;40.80
23323;DHT22;11833;52.554;13.554;2023-06-14T15:19:45;26.50;40.90
23323;DHT22;11833;52.554;13.554;2023-06-14T15:22:12;26.60;40.80
23323;DHT22;11833;52.554;13.554;2023-06-14T15:24:40;26.70;41.00
23323;DHT22;11833;52.554;13.554;2023-06-14T15:27:06;26.80;40.60
23323;DHT22;11833;52.554;13.554;2023-06-14T15:29:33;26.60;40.70
23323;DHT22;11833;52.554;13.554;2023-06-14T15:32:01;26.60;41.10
23323;DHT22;11833;52.554;13.554;2023-06-14T15:34:26;26.60;41.00